createdAt,value
2019-04-16T00:00:02.151Z,73.32
2019-04-16T00:01:02.140Z,73.32
2019-04-16T00:02:02.129Z,73.63
2019-04-16T00:03:02.120Z,73.43
2019-04-16T00:04:02.108Z,74.05
2019-04-16T00:05:02.102Z,73.98
2019-04-16T00:06:02.086Z,74.08
2019-04-16T00:07:02.077Z,73.88
2019-04-16T00:08:02.066Z,74.91
2019-04-16T00:09:02.059Z,74.81
2019-04-16T00:10:02.064Z,74.19
2019-04-16T00:11:02.084Z,74.40
2019-04-16T00:12:02.197Z,74.29
2019-04-16T00:13:02.131Z,74.50
2019-04-16T00:14:03.396Z,74.60
2019-04-16T00:15:02.133Z,74.29
2019-04-16T00:16:01.984Z,74.15
2019-04-16T00:17:02.127Z,74.15
2019-04-16T00:18:01.961Z,74.81
2019-04-16T00:19:05.700Z,75.02
2019-04-16T00:20:05.891Z,75.43
2019-04-16T00:21:01.929Z,75.05
2019-04-16T00:22:01.918Z,75.67
2019-04-16T00:23:01.906Z,75.36
2019-04-16T00:24:01.906Z,75.36
2019-04-16T00:25:01.888Z,75.57
2019-04-16T00:26:01.876Z,75.57
2019-04-16T00:27:01.866Z,75.26
2019-04-16T00:28:01.858Z,75.88
2019-04-16T00:29:02.955Z,75.88
2019-04-16T00:30:04.857Z,75.05
2019-04-16T00:31:04.686Z,75.50
2019-04-16T00:32:01.814Z,75.46
2019-04-16T00:33:01.878Z,75.88
2019-04-16T00:34:01.890Z,75.36
2019-04-16T00:35:01.782Z,75.92
2019-04-16T00:36:01.770Z,75.46
2019-04-16T00:37:01.762Z,75.78
2019-04-16T00:38:01.748Z,75.78
2019-04-16T00:39:01.739Z,75.57
2019-04-16T00:40:01.729Z,76.02
2019-04-16T00:41:02.239Z,75.71
2019-04-16T00:42:01.707Z,75.60
2019-04-16T00:43:01.695Z,75.71
2019-04-16T00:44:01.704Z,75.60
2019-04-16T00:45:01.757Z,75.71
2019-04-16T00:46:01.777Z,76.02
2019-04-16T00:47:01.654Z,76.23
2019-04-16T00:48:01.952Z,75.92
2019-04-16T00:49:01.873Z,76.33
2019-04-16T00:50:01.625Z,76.33
2019-04-16T00:51:01.612Z,76.02
2019-04-16T00:52:05.924Z,76.23
2019-04-16T00:53:02.587Z,75.50
2019-04-16T00:54:01.584Z,76.02
2019-04-16T00:55:01.568Z,76.02
2019-04-16T00:56:01.558Z,75.71
2019-04-16T00:57:01.546Z,75.71
2019-04-16T00:58:01.537Z,75.50
2019-04-16T00:59:01.526Z,75.81
2019-04-16T01:00:01.522Z,76.23
2019-04-16T01:01:01.505Z,75.92
2019-04-16T01:02:01.494Z,75.50
2019-04-16T01:03:01.485Z,76.85
2019-04-16T01:04:01.477Z,76.78
2019-04-16T01:05:01.463Z,76.99
2019-04-16T01:06:01.450Z,77.20
2019-04-16T01:07:01.440Z,77.16
2019-04-16T01:08:01.428Z,76.75
2019-04-16T01:09:01.426Z,76.75
2019-04-16T01:10:01.408Z,77.06
2019-04-16T01:11:01.399Z,77.06
2019-04-16T01:12:01.387Z,77.09
2019-04-16T01:13:01.381Z,76.06
2019-04-16T01:14:01.365Z,77.20
2019-04-16T01:15:01.359Z,77.72
2019-04-16T01:16:03.459Z,77.40
2019-04-16T01:17:03.861Z,77.40
2019-04-16T01:18:01.323Z,77.75
2019-04-16T01:19:01.868Z,77.23
2019-04-16T01:20:01.304Z,77.34
2019-04-16T01:21:01.290Z,77.65
2019-04-16T01:22:01.281Z,77.61
2019-04-16T01:23:01.286Z,77.30
2019-04-16T01:24:01.334Z,77.65
2019-04-16T01:25:01.552Z,77.65
2019-04-16T01:26:01.542Z,77.44
2019-04-16T01:27:01.433Z,77.55
2019-04-16T01:28:01.272Z,77.75
2019-04-16T01:29:03.751Z,77.86
2019-04-16T01:30:05.120Z,77.86
2019-04-16T01:31:07.131Z,77.69
2019-04-16T01:32:02.174Z,77.65
2019-04-16T01:33:01.164Z,77.96
2019-04-16T01:34:01.159Z,77.75
2019-04-16T01:35:01.144Z,77.75
2019-04-16T01:36:01.133Z,77.75
2019-04-16T01:37:01.124Z,77.86
2019-04-16T01:38:01.110Z,77.79
2019-04-16T01:39:14.980Z,77.79
2019-04-16T01:40:02.089Z,78.10
2019-04-16T01:41:01.078Z,78.06
2019-04-16T01:42:01.069Z,78.10
2019-04-16T01:43:01.058Z,78.17
2019-04-16T01:44:01.049Z,78.17
2019-04-16T01:45:01.048Z,77.79
2019-04-16T01:46:02.301Z,78.10
2019-04-16T01:47:03.784Z,78.10
2019-04-16T01:48:01.005Z,78.10
2019-04-16T01:49:00.993Z,78.41
2019-04-16T01:50:01.347Z,78.41
2019-04-16T01:51:00.972Z,78.52
2019-04-16T01:52:00.963Z,78.66
2019-04-16T01:53:00.954Z,78.20
2019-04-16T01:54:00.943Z,78.20
2019-04-16T01:55:00.932Z,78.31
2019-04-16T01:56:00.921Z,78.41
2019-04-16T01:57:01.165Z,78.10
2019-04-16T01:58:02.696Z,78.41
2019-04-16T01:59:04.631Z,77.79
2019-04-16T02:00:00.879Z,77.58
2019-04-16T02:01:00.868Z,77.48
2019-04-16T02:02:00.856Z,77.48
2019-04-16T02:03:00.846Z,77.79
2019-04-16T02:04:00.971Z,77.58
2019-04-16T02:05:00.825Z,77.79
2019-04-16T02:06:00.815Z,77.48
2019-04-16T02:07:00.804Z,77.58
2019-04-16T02:08:00.793Z,77.37
2019-04-16T02:09:02.981Z,77.89
2019-04-16T02:10:00.777Z,77.89
2019-04-16T02:11:00.763Z,77.69
2019-04-16T02:12:00.754Z,77.83
2019-04-16T02:13:00.745Z,77.16
2019-04-16T02:14:00.775Z,76.89
2019-04-16T02:15:00.797Z,77.27
2019-04-16T02:16:00.708Z,76.89
2019-04-16T02:17:00.699Z,76.47
2019-04-16T02:18:00.690Z,77.20
2019-04-16T02:19:02.233Z,77.20
2019-04-16T02:20:02.007Z,76.89
2019-04-16T02:21:00.665Z,77.20
2019-04-16T02:22:00.648Z,77.30
2019-04-16T02:23:00.636Z,77.09
2019-04-16T02:24:00.625Z,77.40
2019-04-16T02:25:00.613Z,77.83
2019-04-16T02:26:00.612Z,77.86
2019-04-16T02:27:00.593Z,77.55
2019-04-16T02:28:00.583Z,77.55
2019-04-16T02:29:00.572Z,77.55
2019-04-16T02:30:02.957Z,77.96
2019-04-16T02:31:00.625Z,77.09
2019-04-16T02:32:00.539Z,77.30
2019-04-16T02:33:00.618Z,77.20
2019-04-16T02:34:00.855Z,76.37
2019-04-16T02:35:00.746Z,76.68
2019-04-16T02:36:00.622Z,76.06
2019-04-16T02:37:02.225Z,75.95
2019-04-16T02:38:00.684Z,76.06
2019-04-16T02:39:00.478Z,76.26
2019-04-16T02:40:00.842Z,76.26
2019-04-16T02:41:00.452Z,76.30
2019-04-16T02:42:00.500Z,76.68
2019-04-16T02:43:06.607Z,76.92
2019-04-16T02:44:01.415Z,76.92
2019-04-16T02:45:00.403Z,76.82
2019-04-16T02:46:00.595Z,76.51
2019-04-16T02:47:05.366Z,75.64
2019-04-16T02:48:01.375Z,75.74
2019-04-16T02:49:00.360Z,75.74
2019-04-16T02:50:00.351Z,75.64
2019-04-16T02:51:05.320Z,76.68
2019-04-16T02:52:01.327Z,75.74
2019-04-16T02:53:00.318Z,75.12
2019-04-16T02:54:00.311Z,75.54
2019-04-16T02:55:07.681Z,75.74
2019-04-16T02:56:01.490Z,75.54
2019-04-16T02:57:00.412Z,75.54
2019-04-16T02:58:01.804Z,75.32
2019-04-16T02:59:00.256Z,75.15
2019-04-16T03:00:00.242Z,75.46
2019-04-16T03:01:00.232Z,75.57
2019-04-16T03:02:00.223Z,76.20
2019-04-16T03:03:00.212Z,76.30
2019-04-16T03:04:00.200Z,75.05
2019-04-16T03:05:00.190Z,75.36
2019-04-16T03:06:01.039Z,75.78
2019-04-16T03:07:02.733Z,75.78
2019-04-16T03:08:01.425Z,75.78
2019-04-16T03:09:00.148Z,76.51
2019-04-16T03:10:01.591Z,75.67
2019-04-16T03:11:00.127Z,75.98
2019-04-16T03:12:00.117Z,75.57
2019-04-16T03:13:00.104Z,75.46
2019-04-16T03:14:00.095Z,76.09
2019-04-16T03:15:01.304Z,75.67
2019-04-16T03:16:02.862Z,75.78
2019-04-16T03:17:01.062Z,76.61
2019-04-16T03:18:00.053Z,75.81
2019-04-16T03:19:00.046Z,75.92
2019-04-16T03:20:00.031Z,75.71
2019-04-16T03:21:00.022Z,75.81
2019-04-16T03:22:02.263Z,76.23
2019-04-16T03:23:05.181Z,75.92
2019-04-16T03:24:00.987Z,76.02
2019-04-16T03:24:59.979Z,76.12
2019-04-16T03:25:59.967Z,75.78
2019-04-16T03:26:59.960Z,76.40
2019-04-16T03:27:59.952Z,75.81
2019-04-16T03:28:59.945Z,76.12
2019-04-16T03:30:03.503Z,75.92
2019-04-16T03:31:00.916Z,76.54
2019-04-16T03:31:59.995Z,77.27
2019-04-16T03:32:59.903Z,77.27
2019-04-16T03:33:59.995Z,77.27
2019-04-16T03:34:59.873Z,76.75
2019-04-16T03:35:59.863Z,77.06
2019-04-16T03:37:01.923Z,76.86
2019-04-16T03:38:01.605Z,77.31
2019-04-16T03:38:59.831Z,76.99
2019-04-16T03:39:59.820Z,76.99
2019-04-16T03:40:59.809Z,77.31
2019-04-16T03:41:59.799Z,77.62
2019-04-16T03:43:02.464Z,77.62
2019-04-16T03:44:03.643Z,77.31
2019-04-16T03:44:59.771Z,76.78
2019-04-16T03:45:59.757Z,77.20
2019-04-16T03:46:59.746Z,77.37
2019-04-16T03:47:59.736Z,77.41
2019-04-16T03:48:59.725Z,77.41
2019-04-16T03:50:00.233Z,76.99
2019-04-16T03:51:00.570Z,76.54
2019-04-16T03:51:59.692Z,76.57
2019-04-16T03:52:59.682Z,75.81
2019-04-16T03:53:59.672Z,76.06
2019-04-16T03:54:59.661Z,76.26
2019-04-16T03:55:59.651Z,76.02
2019-04-16T03:57:02.173Z,76.02
2019-04-16T03:58:02.600Z,76.89
2019-04-16T03:59:00.618Z,76.12
2019-04-16T04:00:00.888Z,76.06
2019-04-16T04:00:59.598Z,75.92
2019-04-16T04:01:59.589Z,75.85
2019-04-16T04:02:59.578Z,76.16
2019-04-16T04:03:59.567Z,76.78
2019-04-16T04:05:01.112Z,77.41
2019-04-16T04:05:59.545Z,77.93
2019-04-16T04:06:59.533Z,77.93
2019-04-16T04:07:59.523Z,77.72
2019-04-16T04:08:59.513Z,78.07
2019-04-16T04:09:59.502Z,77.97
2019-04-16T04:10:59.494Z,77.62
2019-04-16T04:11:59.483Z,77.66
2019-04-16T04:12:59.484Z,77.76
2019-04-16T04:13:59.459Z,77.97
2019-04-16T04:14:59.460Z,77.97
2019-04-16T04:16:01.607Z,78.80
2019-04-16T04:16:59.439Z,78.83
2019-04-16T04:17:59.419Z,78.73
2019-04-16T04:18:59.407Z,78.83
2019-04-16T04:19:59.398Z,78.83
2019-04-16T04:20:59.386Z,78.42
2019-04-16T04:21:59.376Z,78.83
2019-04-16T04:22:59.365Z,78.69
2019-04-16T04:24:00.691Z,78.17
2019-04-16T04:25:03.901Z,78.49
2019-04-16T04:25:59.334Z,78.34
2019-04-16T04:26:59.324Z,77.76
2019-04-16T04:27:59.312Z,77.51
2019-04-16T04:28:59.305Z,77.76
2019-04-16T04:29:59.290Z,77.72
2019-04-16T04:31:00.758Z,77.93
2019-04-16T04:32:03.133Z,77.93
2019-04-16T04:32:59.273Z,77.10
2019-04-16T04:33:59.249Z,77.41
2019-04-16T04:34:59.239Z,77.72
2019-04-16T04:35:59.227Z,77.93
2019-04-16T04:37:00.066Z,77.51
2019-04-16T04:38:00.798Z,77.31
2019-04-16T04:38:59.194Z,77.72
2019-04-16T04:39:59.185Z,77.62
2019-04-16T04:40:59.845Z,77.41
2019-04-16T04:41:59.164Z,77.31
2019-04-16T04:43:00.943Z,76.89
2019-04-16T04:44:03.911Z,77.20
2019-04-16T04:45:00.131Z,76.57
2019-04-16T04:45:59.121Z,76.78
2019-04-16T04:46:59.113Z,76.99
2019-04-16T04:47:59.101Z,77.20
2019-04-16T04:49:00.312Z,77.93
2019-04-16T04:49:59.527Z,76.89
2019-04-16T04:50:59.068Z,76.68
2019-04-16T04:51:59.058Z,75.85
2019-04-16T04:52:59.053Z,76.86
2019-04-16T04:53:59.037Z,77.41
2019-04-16T04:54:59.028Z,76.89
2019-04-16T04:55:59.015Z,77.17
2019-04-16T04:56:59.968Z,76.02
2019-04-16T04:58:02.499Z,76.06
2019-04-16T04:58:58.983Z,75.85
2019-04-16T04:59:58.974Z,76.23
2019-04-16T05:00:58.961Z,75.81
2019-04-16T05:01:58.951Z,76.12
2019-04-16T05:02:58.942Z,75.60
2019-04-16T05:04:02.031Z,75.67
2019-04-16T05:04:58.921Z,75.26
2019-04-16T05:05:58.909Z,75.57
2019-04-16T05:06:58.900Z,75.57
2019-04-16T05:08:00.023Z,74.74
2019-04-16T05:09:00.590Z,74.95
2019-04-16T05:09:58.870Z,74.32
2019-04-16T05:11:02.699Z,74.80
2019-04-16T05:11:58.849Z,74.29
2019-04-16T05:12:58.836Z,74.08
2019-04-16T05:13:58.825Z,74.39
2019-04-16T05:14:58.972Z,73.77
2019-04-16T05:16:01.961Z,73.87
2019-04-16T05:16:58.801Z,73.87
2019-04-16T05:17:58.783Z,73.00
2019-04-16T05:18:58.771Z,73.00
2019-04-16T05:19:58.773Z,72.90
2019-04-16T05:20:58.750Z,72.69
2019-04-16T05:21:58.739Z,72.59
2019-04-16T05:22:58.739Z,72.14
2019-04-16T05:23:58.719Z,72.11
2019-04-16T05:25:01.524Z,71.72
2019-04-16T05:25:58.697Z,71.62
2019-04-16T05:26:58.692Z,71.07
2019-04-16T05:27:58.684Z,70.23
2019-04-16T05:28:58.668Z,69.68
2019-04-16T05:29:58.657Z,70.00
2019-04-16T05:30:58.645Z,69.48
2019-04-16T05:31:58.635Z,70.20
2019-04-16T05:32:58.625Z,70.00
2019-04-16T05:34:02.077Z,69.79
2019-04-16T05:34:58.603Z,70.20
2019-04-16T05:35:59.451Z,69.13
2019-04-16T05:36:58.583Z,69.13
2019-04-16T05:37:58.572Z,68.93
2019-04-16T05:38:58.563Z,68.72
2019-04-16T05:39:59.478Z,68.62
2019-04-16T05:41:12.200Z,67.76
2019-04-16T05:41:59.528Z,67.55
2019-04-16T05:42:58.783Z,67.58
2019-04-16T05:44:01.776Z,66.62
2019-04-16T05:44:58.496Z,64.31
2019-04-16T05:45:58.486Z,63.71
2019-04-16T05:46:58.477Z,61.71
2019-04-16T05:47:58.464Z,61.38
2019-04-16T05:48:58.454Z,60.49
2019-04-16T05:49:58.781Z,58.27
2019-04-16T05:50:59.971Z,56.85
2019-04-16T05:52:02.900Z,55.72
2019-04-16T05:52:59.411Z,55.02
2019-04-16T05:53:58.400Z,53.53
2019-04-16T05:55:01.202Z,52.89
2019-04-16T05:55:58.406Z,51.43
2019-04-16T05:56:58.368Z,51.28
2019-04-16T05:57:58.973Z,51.58
2019-04-16T05:58:59.654Z,51.45
2019-04-16T05:59:58.336Z,50.48
2019-04-16T06:00:58.326Z,49.56
2019-04-16T06:01:58.364Z,49.89
2019-04-16T06:02:58.305Z,51.12
2019-04-16T06:03:58.293Z,50.51
2019-04-16T06:04:58.282Z,50.22
2019-04-16T06:05:59.210Z,51.56
2019-04-16T06:07:02.899Z,51.15
2019-04-16T06:07:59.249Z,50.94
2019-04-16T06:08:58.246Z,51.25
2019-04-16T06:09:58.228Z,50.74
2019-04-16T06:10:58.220Z,50.38
2019-04-16T06:11:58.209Z,49.43
2019-04-16T06:12:58.196Z,48.10
2019-04-16T06:13:58.186Z,49.56
2019-04-16T06:14:58.175Z,49.23
2019-04-16T06:15:58.166Z,49.33
2019-04-16T06:16:58.156Z,48.08
2019-04-16T06:17:58.146Z,47.75
2019-04-16T06:18:58.131Z,48.14
2019-04-16T06:19:58.121Z,47.22
2019-04-16T06:20:58.110Z,47.81
2019-04-16T06:21:58.099Z,46.86
2019-04-16T06:23:00.568Z,46.78
2019-04-16T06:24:03.084Z,46.99
2019-04-16T06:24:59.075Z,47.13
2019-04-16T06:25:58.061Z,47.83
2019-04-16T06:26:58.046Z,47.22
2019-04-16T06:27:58.034Z,47.01
2019-04-16T06:28:59.944Z,46.58
2019-04-16T06:30:01.433Z,46.66
2019-04-16T06:30:58.004Z,47.07
2019-04-16T06:31:57.997Z,46.56
2019-04-16T06:32:57.984Z,46.86
2019-04-16T06:33:57.972Z,46.53
2019-04-16T06:34:57.961Z,45.61
2019-04-16T06:35:57.948Z,45.31
2019-04-16T06:36:57.939Z,44.79
2019-04-16T06:37:57.929Z,45.72
2019-04-16T06:38:58.661Z,45.31
2019-04-16T06:40:00.643Z,45.80
2019-04-16T06:41:03.118Z,45.29
2019-04-16T06:41:58.883Z,44.76
2019-04-16T06:42:57.876Z,45.17
2019-04-16T06:43:59.259Z,43.94
2019-04-16T06:44:57.863Z,44.55
2019-04-16T06:45:57.841Z,44.65
2019-04-16T06:46:57.830Z,45.37
2019-04-16T06:47:57.820Z,43.51
2019-04-16T06:48:57.810Z,43.59
2019-04-16T06:49:57.798Z,43.84
2019-04-16T06:50:57.788Z,43.84
2019-04-16T06:51:59.731Z,43.32
2019-04-16T06:52:57.765Z,43.82
2019-04-16T06:53:57.755Z,43.51
2019-04-16T06:55:00.440Z,44.18
2019-04-16T06:55:58.733Z,43.98
2019-04-16T06:56:57.722Z,44.76
2019-04-16T06:57:57.715Z,43.63
2019-04-16T06:58:58.200Z,44.63
2019-04-16T06:59:59.489Z,43.67
2019-04-16T07:00:57.682Z,42.83
2019-04-16T07:01:57.671Z,42.94
2019-04-16T07:03:02.562Z,43.04
2019-04-16T07:03:59.855Z,42.63
2019-04-16T07:04:58.325Z,41.51
2019-04-16T07:05:57.626Z,41.73
2019-04-16T07:06:57.614Z,42.24
2019-04-16T07:07:57.610Z,41.61
2019-04-16T07:08:57.595Z,41.71
2019-04-16T07:09:57.744Z,41.71
2019-04-16T07:10:57.572Z,42.10
2019-04-16T07:11:57.563Z,42.10
2019-04-16T07:12:57.559Z,42.18
2019-04-16T07:13:57.544Z,42.88
2019-04-16T07:14:57.535Z,39.90
2019-04-16T07:15:57.791Z,41.52
2019-04-16T07:17:00.162Z,38.73
2019-04-16T07:17:57.496Z,37.61
2019-04-16T07:18:57.486Z,40.27
2019-04-16T07:19:57.483Z,38.36
2019-04-16T07:20:57.466Z,38.68
2019-04-16T07:21:57.453Z,39.15
2019-04-16T07:22:57.440Z,40.37
2019-04-16T07:23:58.613Z,41.08
2019-04-16T07:24:57.591Z,40.55
2019-04-16T07:25:57.515Z,40.88
2019-04-16T07:26:57.464Z,41.78
2019-04-16T07:27:58.619Z,39.64
2019-04-16T07:28:59.024Z,40.45
2019-04-16T07:29:57.726Z,40.53
2019-04-16T07:30:57.879Z,39.48
2019-04-16T07:31:57.395Z,40.17
2019-04-16T07:33:00.591Z,38.56
2019-04-16T07:33:57.344Z,40.17
2019-04-16T07:34:57.314Z,38.41
2019-04-16T07:35:57.303Z,36.99
2019-04-16T07:37:00.973Z,38.04
2019-04-16T07:37:57.286Z,37.54
2019-04-16T07:38:57.286Z,38.09
2019-04-16T07:39:57.265Z,42.49
2019-04-16T07:40:57.249Z,40.23
2019-04-16T07:42:08.662Z,39.26
2019-04-16T07:42:59.353Z,38.31
2019-04-16T07:43:57.229Z,37.19
2019-04-16T07:44:57.207Z,37.02
2019-04-16T07:45:57.199Z,37.59
2019-04-16T07:46:57.238Z,37.05
2019-04-16T07:47:57.430Z,37.07
2019-04-16T07:48:57.165Z,36.07
2019-04-16T07:49:59.842Z,37.12
2019-04-16T07:50:57.145Z,37.54
2019-04-16T07:51:57.137Z,36.71
2019-04-16T07:52:57.124Z,37.30
2019-04-16T07:53:57.113Z,37.59
2019-04-16T07:54:57.101Z,37.07
2019-04-16T07:55:57.091Z,36.68
2019-04-16T07:56:57.080Z,37.93
2019-04-16T07:57:57.069Z,36.63
2019-04-16T07:59:00.194Z,36.73
2019-04-16T07:59:57.047Z,36.61
2019-04-16T08:00:57.334Z,36.88
2019-04-16T08:01:57.033Z,38.09
2019-04-16T08:02:57.016Z,36.90
2019-04-16T08:04:01.015Z,36.39
2019-04-16T08:04:57.996Z,36.58
2019-04-16T08:05:56.983Z,36.63
2019-04-16T08:06:56.973Z,36.53
2019-04-16T08:07:56.966Z,37.12
2019-04-16T08:08:58.113Z,36.90
2019-04-16T08:10:01.069Z,35.97
2019-04-16T08:10:57.930Z,35.85
2019-04-16T08:11:56.928Z,34.94
2019-04-16T08:13:00.518Z,34.70
2019-04-16T08:13:56.904Z,34.48
2019-04-16T08:14:56.900Z,36.37
2019-04-16T08:15:57.551Z,33.54
2019-04-16T08:16:56.869Z,35.38
2019-04-16T08:17:56.856Z,34.95
2019-04-16T08:18:56.847Z,34.03
2019-04-16T08:19:56.917Z,33.30
2019-04-16T08:21:02.026Z,33.20
2019-04-16T08:21:58.008Z,31.78
2019-04-16T08:22:56.804Z,32.59
2019-04-16T08:23:56.796Z,33.72
2019-04-16T08:24:59.646Z,35.22
2019-04-16T08:26:03.223Z,32.68
2019-04-16T08:26:57.936Z,31.64
2019-04-16T08:27:56.758Z,30.52
2019-04-16T08:28:56.742Z,32.85
2019-04-16T08:30:02.186Z,31.61
2019-04-16T08:30:57.720Z,32.08
2019-04-16T08:31:56.711Z,30.47
2019-04-16T08:32:56.700Z,29.86
2019-04-16T08:33:56.691Z,28.68
2019-04-16T08:34:56.683Z,30.62
2019-04-16T08:35:56.668Z,29.10
2019-04-16T08:36:56.659Z,30.52
2019-04-16T08:37:58.542Z,32.53
2019-04-16T08:38:56.640Z,31.81
2019-04-16T08:39:56.628Z,31.00
2019-04-16T08:40:56.621Z,30.63
2019-04-16T08:41:56.609Z,30.24
2019-04-16T08:42:57.544Z,32.26
2019-04-16T08:43:56.588Z,31.73
2019-04-16T08:44:56.656Z,29.98
2019-04-16T08:45:56.574Z,28.96
2019-04-16T08:46:58.904Z,28.34
2019-04-16T08:47:56.791Z,28.55
2019-04-16T08:48:56.636Z,29.99
2019-04-16T08:49:56.529Z,29.19
2019-04-16T08:50:58.198Z,31.70
2019-04-16T08:51:56.505Z,28.44
2019-04-16T08:52:56.496Z,29.42
2019-04-16T08:53:56.488Z,28.58
2019-04-16T08:54:56.475Z,25.62
2019-04-16T08:55:56.465Z,26.82
2019-04-16T08:56:56.455Z,27.01
2019-04-16T08:57:56.444Z,28.21
2019-04-16T08:59:00.651Z,27.61
2019-04-16T08:59:56.432Z,26.99
2019-04-16T09:00:56.452Z,28.07
2019-04-16T09:01:56.405Z,26.85
2019-04-16T09:02:58.688Z,25.93
2019-04-16T09:04:01.517Z,25.83
2019-04-16T09:04:57.375Z,25.56
2019-04-16T09:05:56.364Z,27.59
2019-04-16T09:07:09.718Z,26.01
2019-04-16T09:08:10.908Z,27.83
2019-04-16T09:09:11.183Z,26.92
2019-04-16T09:09:58.534Z,26.85
2019-04-16T09:10:56.317Z,26.73
2019-04-16T09:11:56.493Z,29.47
2019-04-16T09:13:04.037Z,27.31
2019-04-16T09:13:57.282Z,26.59
2019-04-16T09:14:56.650Z,24.67
2019-04-16T09:15:56.263Z,24.76
2019-04-16T09:16:56.262Z,25.23
2019-04-16T09:17:56.469Z,25.64
2019-04-16T09:18:56.232Z,24.99
2019-04-16T09:19:56.224Z,26.82
2019-04-16T09:20:56.215Z,27.45
2019-04-16T09:21:56.204Z,26.54
2019-04-16T09:22:58.832Z,27.03
2019-04-16T09:24:03.614Z,25.59
2019-04-16T09:24:57.704Z,26.97
2019-04-16T09:26:11.244Z,25.57
2019-04-16T09:26:57.171Z,24.86
2019-04-16T09:27:56.147Z,26.06
2019-04-16T09:28:56.134Z,26.76
2019-04-16T09:29:56.338Z,25.09
2019-04-16T09:30:56.114Z,27.04
2019-04-16T09:31:56.636Z,26.12
2019-04-16T09:33:00.363Z,25.70
2019-04-16T09:33:57.553Z,24.69
2019-04-16T09:35:08.095Z,25.83
2019-04-16T09:35:57.062Z,27.34
2019-04-16T09:36:56.055Z,25.71
2019-04-16T09:37:56.049Z,24.51
2019-04-16T09:38:56.035Z,26.03
2019-04-16T09:39:56.026Z,24.71
2019-04-16T09:40:56.017Z,24.52
2019-04-16T09:41:56.005Z,25.95
2019-04-16T09:42:55.994Z,25.45
2019-04-16T09:43:57.360Z,25.46
2019-04-16T09:44:55.974Z,25.74
2019-04-16T09:46:09.414Z,24.69
2019-04-16T09:46:59.660Z,24.48
2019-04-16T09:47:55.943Z,23.57
2019-04-16T09:48:55.935Z,24.29
2019-04-16T09:49:55.928Z,25.20
2019-04-16T09:50:55.915Z,25.20
2019-04-16T09:51:55.902Z,24.17
2019-04-16T09:52:56.412Z,24.77
2019-04-16T09:53:55.886Z,23.88
2019-04-16T09:54:55.873Z,24.59
2019-04-16T09:55:55.864Z,24.58
2019-04-16T09:56:56.827Z,27.01
2019-04-16T09:57:55.844Z,24.60
2019-04-16T09:58:55.833Z,25.18
2019-04-16T09:59:55.828Z,24.76
2019-04-16T10:00:55.813Z,24.85
2019-04-16T10:01:55.803Z,23.57
2019-04-16T10:02:55.793Z,24.60
2019-04-16T10:03:55.784Z,25.82
2019-04-16T10:04:55.779Z,26.02
2019-04-16T10:05:55.765Z,26.92
2019-04-16T10:06:55.774Z,25.49
2019-04-16T10:07:57.038Z,24.78
2019-04-16T10:08:56.886Z,25.70
2019-04-16T10:09:55.725Z,25.92
2019-04-16T10:11:00.622Z,25.11
2019-04-16T10:11:57.393Z,23.99
2019-04-16T10:12:55.708Z,24.38
2019-04-16T10:13:55.686Z,24.82
2019-04-16T10:14:55.714Z,24.98
2019-04-16T10:15:55.859Z,24.74
2019-04-16T10:16:55.654Z,23.72
2019-04-16T10:17:58.633Z,23.55
2019-04-16T10:18:56.655Z,24.39
2019-04-16T10:19:55.627Z,24.00
2019-04-16T10:20:55.638Z,24.12
2019-04-16T10:21:55.627Z,24.74
2019-04-16T10:22:55.619Z,24.75
2019-04-16T10:23:55.586Z,26.06
2019-04-16T10:24:55.594Z,25.63
2019-04-16T10:25:55.585Z,25.23
2019-04-16T10:26:56.926Z,24.59
2019-04-16T10:27:55.547Z,25.68
2019-04-16T10:28:55.534Z,23.27
2019-04-16T10:29:55.524Z,25.16
2019-04-16T10:30:55.514Z,25.31
2019-04-16T10:31:55.513Z,24.29
2019-04-16T10:32:55.502Z,24.80
2019-04-16T10:33:55.492Z,25.41
2019-04-16T10:34:55.477Z,25.40
2019-04-16T10:35:57.454Z,26.37
2019-04-16T10:36:55.480Z,24.74
2019-04-16T10:37:55.445Z,23.50
2019-04-16T10:38:55.437Z,23.42
2019-04-16T10:39:55.442Z,22.63
2019-04-16T10:40:55.420Z,23.86
2019-04-16T10:41:56.550Z,23.73
2019-04-16T10:42:55.394Z,22.02
2019-04-16T10:43:55.390Z,25.87
2019-04-16T10:44:55.401Z,23.36
2019-04-16T10:45:55.397Z,24.17
2019-04-16T10:46:55.366Z,24.05
2019-04-16T10:47:55.369Z,24.66
2019-04-16T10:48:55.347Z,23.03
2019-04-16T10:49:55.332Z,22.03
2019-04-16T10:50:55.530Z,22.25
2019-04-16T10:51:55.326Z,23.97
2019-04-16T10:52:56.207Z,22.16
2019-04-16T10:53:55.286Z,21.95
2019-04-16T10:54:55.275Z,22.47
2019-04-16T10:55:55.265Z,22.98
2019-04-16T10:56:57.894Z,23.18
2019-04-16T10:57:55.245Z,23.58
2019-04-16T10:58:55.249Z,21.57
2019-04-16T10:59:55.228Z,22.16
2019-04-16T11:00:55.241Z,21.26
2019-04-16T11:01:55.209Z,20.55
2019-04-16T11:02:55.229Z,21.36
2019-04-16T11:03:55.185Z,22.06
2019-04-16T11:04:55.176Z,22.64
2019-04-16T11:05:57.046Z,22.16
2019-04-16T11:06:55.158Z,21.76
2019-04-16T11:07:55.151Z,23.63
2019-04-16T11:08:55.143Z,20.52
2019-04-16T11:09:55.141Z,22.01
2019-04-16T11:10:55.122Z,21.41
2019-04-16T11:11:55.107Z,20.98
2019-04-16T11:12:55.117Z,20.08
2019-04-16T11:14:00.219Z,20.89
2019-04-16T11:14:56.073Z,20.29
2019-04-16T11:15:55.096Z,21.14
2019-04-16T11:16:55.084Z,21.55
2019-04-16T11:17:55.079Z,22.04
2019-04-16T11:18:55.390Z,21.85
2019-04-16T11:19:55.045Z,22.66
2019-04-16T11:20:55.016Z,22.13
2019-04-16T11:21:55.014Z,21.74
2019-04-16T11:22:54.995Z,22.74
2019-04-16T11:23:55.013Z,21.82
2019-04-16T11:24:54.975Z,21.01
2019-04-16T11:25:54.973Z,20.42
2019-04-16T11:26:54.956Z,21.23
2019-04-16T11:27:54.949Z,20.72
2019-04-16T11:28:54.935Z,21.95
2019-04-16T11:29:54.925Z,21.04
2019-04-16T11:30:54.924Z,21.86
2019-04-16T11:31:54.939Z,22.44
2019-04-16T11:32:54.918Z,21.43
2019-04-16T11:33:54.920Z,21.04
2019-04-16T11:34:54.891Z,20.84
2019-04-16T11:35:54.865Z,22.64
2019-04-16T11:36:58.197Z,24.46
2019-04-16T11:37:54.846Z,22.14
2019-04-16T11:38:54.838Z,20.54
2019-04-16T11:39:54.832Z,21.23
2019-04-16T11:40:54.862Z,21.22
2019-04-16T11:41:54.827Z,20.94
2019-04-16T11:42:54.819Z,21.95
2019-04-16T11:43:54.785Z,20.52
2019-04-16T11:44:54.791Z,21.92
2019-04-16T11:45:54.773Z,21.11
2019-04-16T11:46:54.799Z,22.12
2019-04-16T11:47:54.745Z,22.25
2019-04-16T11:48:54.782Z,23.09
2019-04-16T11:49:54.725Z,23.69
2019-04-16T11:50:54.747Z,23.80
2019-04-16T11:51:54.735Z,22.98
2019-04-16T11:52:57.286Z,23.17
2019-04-16T11:53:54.711Z,22.27
2019-04-16T11:54:54.704Z,23.14
2019-04-16T11:55:54.702Z,21.00
2019-04-16T11:56:55.475Z,21.81
2019-04-16T11:57:54.685Z,22.61
2019-04-16T11:58:57.432Z,22.92
2019-04-16T12:00:06.070Z,23.62
2019-04-16T12:00:55.677Z,22.30
2019-04-16T12:01:54.624Z,21.48
2019-04-16T12:02:54.594Z,21.19
2019-04-16T12:03:56.315Z,23.39
2019-04-16T12:04:58.849Z,21.60
2019-04-16T12:05:54.567Z,21.30
2019-04-16T12:06:54.577Z,20.68
2019-04-16T12:07:54.577Z,20.97
2019-04-16T12:08:54.536Z,20.36
2019-04-16T12:09:54.525Z,20.27
2019-04-16T12:10:54.520Z,20.07
2019-04-16T12:11:54.511Z,19.47
2019-04-16T12:12:54.492Z,20.70
2019-04-16T12:13:54.486Z,21.61
2019-04-16T12:14:54.472Z,20.61
2019-04-16T12:15:54.493Z,20.61
2019-04-16T12:16:54.481Z,22.60
2019-04-16T12:17:54.440Z,20.48
2019-04-16T12:18:54.433Z,20.29
2019-04-16T12:19:54.503Z,22.79
2019-04-16T12:20:54.453Z,22.60
2019-04-16T12:21:54.402Z,22.80
2019-04-16T12:22:54.392Z,21.00
2019-04-16T12:23:54.381Z,22.71
2019-04-16T12:24:54.387Z,22.41
2019-04-16T12:25:54.367Z,21.50
2019-04-16T12:26:54.373Z,21.06
2019-04-16T12:27:54.379Z,21.17
2019-04-16T12:28:54.335Z,20.95
2019-04-16T12:29:54.325Z,21.84
2019-04-16T12:30:54.349Z,19.93
2019-04-16T12:31:54.299Z,20.43
2019-04-16T12:32:54.421Z,19.87
2019-04-16T12:33:54.317Z,20.59
2019-04-16T12:34:54.285Z,21.09
2019-04-16T12:35:54.288Z,23.02
2019-04-16T12:36:54.244Z,20.89
2019-04-16T12:37:54.247Z,21.81
2019-04-16T12:38:54.272Z,21.92
2019-04-16T12:39:54.232Z,22.64
2019-04-16T12:40:54.257Z,22.64
2019-04-16T12:41:54.217Z,23.03
2019-04-16T12:42:54.271Z,23.53
2019-04-16T12:43:54.173Z,21.31
2019-04-16T12:44:54.210Z,22.29
2019-04-16T12:45:54.155Z,23.47
2019-04-16T12:46:54.149Z,19.97
2019-04-16T12:47:54.166Z,20.57
2019-04-16T12:48:54.173Z,20.15
2019-04-16T12:49:54.118Z,19.84
2019-04-16T12:50:54.153Z,22.26
2019-04-16T12:51:54.092Z,20.65